sensor_id;sensor_type;location;lat;lon;timestamp;P1;durP1;ratioP1;P2;durP2;ratioP2
17662;SDS011;8950;56.892;15.090;2023-04-28T00:01:43;5.45;;;2.05;;
17662;SDS011;8950;56.892;15.090;2023-04-28T00:04:10;5.43;;;2.00;;
17662;SDS011;8950;56.892;15.090;2023-04-28T00:06:37;3.08;;;2.08;;
17662;SDS011;8950;56.892;15.090;2023-04-28T00:09:05;5.32;;;1.90;;
17662;SDS011;8950;56.892;15.090;2023-04-28T00:11:31;2.13;;;1.83;;
17662;SDS011;8950;56.892;15.090;2023-04-28T00:13:58;2.50;;;1.80;;
17662;SDS011;8950;56.892;15.090;2023-04-28T00:16:25;3.38;;;2.10;;
17662;SDS011;8950;56.892;15.090;2023-04-28T00:18:51;3.65;;;2.08;;
17662;SDS011;8950;56.892;15.090;2023-04-28T00:21:17;2.65;;;1.98;;
17662;SDS011;8950;56.892;15.090;2023-04-28T00:23:45;2.42;;;1.70;;
17662;SDS011;8950;56.892;15.090;2023-04-28T00:26:11;3.78;;;2.03;;
17662;SDS011;8950;56.892;15.090;2023-04-28T00:28:38;3.05;;;1.92;;
17662;SDS011;8950;56.892;15.090;2023-04-28T00:31:08;3.88;;;2.25;;
17662;SDS011;8950;56.892;15.090;2023-04-28T00:33:36;3.65;;;2.03;;
17662;SDS011;8950;56.892;15.090;2023-04-28T00:36:02;4.13;;;2.15;;
17662;SDS011;8950;56.892;15.090;2023-04-28T00:38:29;3.65;;;2.10;;
17662;SDS011;8950;56.892;15.090;2023-04-28T00:40:57;2.22;;;1.90;;
17662;SDS011;8950;56.892;15.090;2023-04-28T00:43:23;2.45;;;1.90;;
17662;SDS011;8950;56.892;15.090;2023-04-28T00:45:50;3.80;;;1.90;;
17662;SDS011;8950;56.892;15.090;2023-04-28T00:48:17;4.38;;;2.20;;
17662;SDS011;8950;56.892;15.090;2023-04-28T00:50:43;6.75;;;2.03;;
17662;SDS011;8950;56.892;15.090;2023-04-28T00:53:10;4.30;;;2.10;;
17662;SDS011;8950;56.892;15.090;2023-04-28T00:55:37;3.08;;;2.00;;
17662;SDS011;8950;56.892;15.090;2023-04-28T00:58:05;3.70;;;1.90;;
17662;SDS011;8950;56.892;15.090;2023-04-28T01:00:32;2.88;;;1.90;;
17662;SDS011;8950;56.892;15.090;2023-04-28T01:02:59;3.65;;;1.88;;
17662;SDS011;8950;56.892;15.090;2023-04-28T01:05:26;3.17;;;1.98;;
17662;SDS011;8950;56.892;15.090;2023-04-28T01:07:53;2.88;;;2.00;;
17662;SDS011;8950;56.892;15.090;2023-04-28T01:10:20;3.80;;;2.00;;
17662;SDS011;8950;56.892;15.090;2023-04-28T01:12:46;3.15;;;2.40;;
17662;SDS011;8950;56.892;15.090;2023-04-28T01:15:16;4.88;;;2.30;;
17662;SDS011;8950;56.892;15.090;2023-04-28T01:17:43;2.17;;;1.80;;
17662;SDS011;8950;56.892;15.090;2023-04-28T01:20:10;2.47;;;1.92;;
17662;SDS011;8950;56.892;15.090;2023-04-28T01:22:36;4.22;;;2.08;;
17662;SDS011;8950;56.892;15.090;2023-04-28T01:25:05;2.83;;;1.83;;
17662;SDS011;8950;56.892;15.090;2023-04-28T01:27:32;5.68;;;2.10;;
17662;SDS011;8950;56.892;15.090;2023-04-28T01:29:58;3.30;;;2.05;;
17662;SDS011;8950;56.892;15.090;2023-04-28T01:32:25;3.17;;;1.83;;
17662;SDS011;8950;56.892;15.090;2023-04-28T01:34:51;4.43;;;2.10;;
17662;SDS011;8950;56.892;15.090;2023-04-28T01:37:17;4.55;;;2.20;;
17662;SDS011;8950;56.892;15.090;2023-04-28T01:39:44;3.90;;;2.20;;
17662;SDS011;8950;56.892;15.090;2023-04-28T01:42:11;2.83;;;2.20;;
17662;SDS011;8950;56.892;15.090;2023-04-28T01:44:38;3.58;;;2.10;;
17662;SDS011;8950;56.892;15.090;2023-04-28T01:47:05;5.28;;;2.60;;
17662;SDS011;8950;56.892;15.090;2023-04-28T01:49:31;5.03;;;2.17;;
17662;SDS011;8950;56.892;15.090;2023-04-28T01:51:57;4.18;;;2.00;;
17662;SDS011;8950;56.892;15.090;2023-04-28T01:54:24;3.65;;;2.10;;
17662;SDS011;8950;56.892;15.090;2023-04-28T01:56:51;2.65;;;1.70;;
17662;SDS011;8950;56.892;15.090;2023-04-28T01:59:19;3.08;;;1.80;;
17662;SDS011;8950;56.892;15.090;2023-04-28T02:01:46;3.55;;;2.10;;
17662;SDS011;8950;56.892;15.090;2023-04-28T02:04:12;3.75;;;2.22;;
17662;SDS011;8950;56.892;15.090;2023-04-28T02:06:38;4.57;;;2.33;;
17662;SDS011;8950;56.892;15.090;2023-04-28T02:09:05;3.65;;;2.17;;
17662;SDS011;8950;56.892;15.090;2023-04-28T02:11:32;4.95;;;2.45;;
17662;SDS011;8950;56.892;15.090;2023-04-28T02:13:58;3.08;;;2.20;;
17662;SDS011;8950;56.892;15.090;2023-04-28T02:16:27;4.10;;;2.10;;
17662;SDS011;8950;56.892;15.090;2023-04-28T02:18:54;3.00;;;2.33;;
17662;SDS011;8950;56.892;15.090;2023-04-28T02:21:20;3.40;;;1.83;;
17662;SDS011;8950;56.892;15.090;2023-04-28T02:23:46;3.47;;;1.90;;
17662;SDS011;8950;56.892;15.090;2023-04-28T02:26:14;2.20;;;1.75;;
17662;SDS011;8950;56.892;15.090;2023-04-28T02:28:41;4.43;;;1.80;;
17662;SDS011;8950;56.892;15.090;2023-04-28T02:31:08;2.65;;;1.90;;
17662;SDS011;8950;56.892;15.090;2023-04-28T02:33:36;5.88;;;2.28;;
17662;SDS011;8950;56.892;15.090;2023-04-28T02:36:03;2.55;;;2.10;;
17662;SDS011;8950;56.892;15.090;2023-04-28T02:38:30;4.07;;;2.00;;
17662;SDS011;8950;56.892;15.090;2023-04-28T02:40:57;3.97;;;2.10;;
17662;SDS011;8950;56.892;15.090;2023-04-28T02:43:24;3.88;;;2.35;;
17662;SDS011;8950;56.892;15.090;2023-04-28T02:45:50;3.78;;;2.17;;
17662;SDS011;8950;56.892;15.090;2023-04-28T02:48:17;2.53;;;2.00;;
17662;SDS011;8950;56.892;15.090;2023-04-28T02:50:45;5.43;;;2.42;;
17662;SDS011;8950;56.892;15.090;2023-04-28T02:53:11;4.00;;;2.30;;
17662;SDS011;8950;56.892;15.090;2023-04-28T02:55:38;5.40;;;2.30;;
17662;SDS011;8950;56.892;15.090;2023-04-28T02:58:04;7.25;;;2.47;;
17662;SDS011;8950;56.892;15.090;2023-04-28T03:00:30;7.38;;;2.63;;
17662;SDS011;8950;56.892;15.090;2023-04-28T03:02:57;4.88;;;2.58;;
17662;SDS011;8950;56.892;15.090;2023-04-28T03:05:23;4.70;;;2.50;;
17662;SDS011;8950;56.892;15.090;2023-04-28T03:07:51;5.55;;;2.25;;
17662;SDS011;8950;56.892;15.090;2023-04-28T03:10:18;4.63;;;2.22;;
17662;SDS011;8950;56.892;15.090;2023-04-28T03:12:44;5.05;;;2.45;;
17662;SDS011;8950;56.892;15.090;2023-04-28T03:15:11;5.88;;;2.10;;
17662;SDS011;8950;56.892;15.090;2023-04-28T03:17:37;5.68;;;2.38;;
17662;SDS011;8950;56.892;15.090;2023-04-28T03:20:06;5.30;;;2.30;;
17662;SDS011;8950;56.892;15.090;2023-04-28T03:22:33;4.22;;;2.10;;
17662;SDS011;8950;56.892;15.090;2023-04-28T03:25:01;6.68;;;2.47;;
17662;SDS011;8950;56.892;15.090;2023-04-28T03:27:27;5.35;;;2.70;;
17662;SDS011;8950;56.892;15.090;2023-04-28T03:29:54;5.88;;;2.42;;
17662;SDS011;8950;56.892;15.090;2023-04-28T03:32:20;5.03;;;2.53;;
17662;SDS011;8950;56.892;15.090;2023-04-28T03:34:47;5.18;;;2.83;;
17662;SDS011;8950;56.892;15.090;2023-04-28T03:37:13;6.40;;;2.30;;
17662;SDS011;8950;56.892;15.090;2023-04-28T03:39:39;3.55;;;1.95;;
17662;SDS011;8950;56.892;15.090;2023-04-28T03:42:07;4.95;;;2.58;;
17662;SDS011;8950;56.892;15.090;2023-04-28T03:44:33;4.93;;;2.42;;
17662;SDS011;8950;56.892;15.090;2023-04-28T03:47:01;5.55;;;2.85;;
17662;SDS011;8950;56.892;15.090;2023-04-28T03:49:27;6.45;;;2.40;;
17662;SDS011;8950;56.892;15.090;2023-04-28T03:51:53;4.45;;;2.50;;
17662;SDS011;8950;56.892;15.090;2023-04-28T03:54:20;4.13;;;2.25;;
17662;SDS011;8950;56.892;15.090;2023-04-28T03:56:47;5.57;;;2.78;;
17662;SDS011;8950;56.892;15.090;2023-04-28T03:59:14;5.28;;;2.60;;
17662;SDS011;8950;56.892;15.090;2023-04-28T04:01:41;5.22;;;2.60;;
17662;SDS011;8950;56.892;15.090;2023-04-28T04:04:07;5.85;;;2.53;;
17662;SDS011;8950;56.892;15.090;2023-04-28T04:06:34;7.03;;;2.85;;
17662;SDS011;8950;56.892;15.090;2023-04-28T04:09:00;6.15;;;2.75;;
17662;SDS011;8950;56.892;15.090;2023-04-28T04:11:27;5.35;;;2.72;;
17662;SDS011;8950;56.892;15.090;2023-04-28T04:13:53;5.38;;;3.28;;
17662;SDS011;8950;56.892;15.090;2023-04-28T04:16:21;6.45;;;2.95;;
17662;SDS011;8950;56.892;15.090;2023-04-28T04:18:48;6.30;;;2.45;;
17662;SDS011;8950;56.892;15.090;2023-04-28T04:21:14;4.28;;;2.33;;
17662;SDS011;8950;56.892;15.090;2023-04-28T04:23:41;5.00;;;2.58;;
17662;SDS011;8950;56.892;15.090;2023-04-28T04:26:07;3.95;;;2.47;;
17662;SDS011;8950;56.892;15.090;2023-04-28T04:28:34;5.50;;;2.40;;
17662;SDS011;8950;56.892;15.090;2023-04-28T04:31:00;6.70;;;2.75;;
17662;SDS011;8950;56.892;15.090;2023-04-28T04:33:29;6.05;;;2.78;;
17662;SDS011;8950;56.892;15.090;2023-04-28T04:35:55;4.15;;;2.35;;
17662;SDS011;8950;56.892;15.090;2023-04-28T04:38:22;4.75;;;2.53;;
17662;SDS011;8950;56.892;15.090;2023-04-28T04:40:48;4.53;;;2.53;;
17662;SDS011;8950;56.892;15.090;2023-04-28T04:43:15;6.13;;;2.83;;
17662;SDS011;8950;56.892;15.090;2023-04-28T04:45:42;5.85;;;2.58;;
17662;SDS011;8950;56.892;15.090;2023-04-28T04:48:08;6.30;;;2.60;;
17662;SDS011;8950;56.892;15.090;2023-04-28T04:50:36;6.63;;;3.08;;
17662;SDS011;8950;56.892;15.090;2023-04-28T04:53:03;6.75;;;3.20;;
17662;SDS011;8950;56.892;15.090;2023-04-28T04:55:29;6.15;;;2.85;;
17662;SDS011;8950;56.892;15.090;2023-04-28T04:57:55;6.22;;;2.63;;
17662;SDS011;8950;56.892;15.090;2023-04-28T05:00:22;4.63;;;2.78;;
17662;SDS011;8950;56.892;15.090;2023-04-28T05:02:48;5.45;;;2.95;;
17662;SDS011;8950;56.892;15.090;2023-04-28T05:05:15;6.90;;;3.08;;
17662;SDS011;8950;56.892;15.090;2023-04-28T05:07:43;7.35;;;2.72;;
17662;SDS011;8950;56.892;15.090;2023-04-28T05:10:09;5.95;;;2.83;;
17662;SDS011;8950;56.892;15.090;2023-04-28T05:12:36;7.35;;;3.00;;
17662;SDS011;8950;56.892;15.090;2023-04-28T05:15:03;5.80;;;2.95;;
17662;SDS011;8950;56.892;15.090;2023-04-28T05:17:30;6.40;;;3.05;;
17662;SDS011;8950;56.892;15.090;2023-04-28T05:19:57;5.18;;;3.00;;
17662;SDS011;8950;56.892;15.090;2023-04-28T05:22:23;5.97;;;3.22;;
17662;SDS011;8950;56.892;15.090;2023-04-28T05:24:51;5.40;;;2.63;;
17662;SDS011;8950;56.892;15.090;2023-04-28T05:27:17;5.30;;;2.97;;
17662;SDS011;8950;56.892;15.090;2023-04-28T05:29:44;5.85;;;2.90;;
17662;SDS011;8950;56.892;15.090;2023-04-28T05:32:11;5.93;;;2.90;;
17662;SDS011;8950;56.892;15.090;2023-04-28T05:34:37;6.10;;;2.65;;
17662;SDS011;8950;56.892;15.090;2023-04-28T05:37:03;5.53;;;2.95;;
17662;SDS011;8950;56.892;15.090;2023-04-28T05:39:30;4.82;;;2.72;;
17662;SDS011;8950;56.892;15.090;2023-04-28T05:41:57;4.32;;;2.70;;
17662;SDS011;8950;56.892;15.090;2023-04-28T05:44:24;7.45;;;3.13;;
17662;SDS011;8950;56.892;15.090;2023-04-28T05:46:50;3.95;;;2.35;;
17662;SDS011;8950;56.892;15.090;2023-04-28T05:49:17;5.95;;;2.58;;
17662;SDS011;8950;56.892;15.090;2023-04-28T05:51:43;7.30;;;3.40;;
17662;SDS011;8950;56.892;15.090;2023-04-28T05:54:09;7.32;;;3.22;;
17662;SDS011;8950;56.892;15.090;2023-04-28T05:56:36;7.38;;;3.10;;
17662;SDS011;8950;56.892;15.090;2023-04-28T05:59:04;5.63;;;2.47;;
17662;SDS011;8950;56.892;15.090;2023-04-28T06:01:30;6.35;;;2.90;;
17662;SDS011;8950;56.892;15.090;2023-04-28T06:03:57;6.53;;;3.05;;
17662;SDS011;8950;56.892;15.090;2023-04-28T06:06:24;4.65;;;2.70;;
17662;SDS011;8950;56.892;15.090;2023-04-28T06:08:51;4.97;;;2.72;;
17662;SDS011;8950;56.892;15.090;2023-04-28T06:11:18;8.05;;;2.88;;
17662;SDS011;8950;56.892;15.090;2023-04-28T06:13:46;5.72;;;2.70;;
17662;SDS011;8950;56.892;15.090;2023-04-28T06:16:14;5.78;;;2.95;;
17662;SDS011;8950;56.892;15.090;2023-04-28T06:18:41;6.25;;;2.70;;
17662;SDS011;8950;56.892;15.090;2023-04-28T06:21:07;6.15;;;2.78;;
17662;SDS011;8950;56.892;15.090;2023-04-28T06:23:33;5.25;;;3.03;;
17662;SDS011;8950;56.892;15.090;2023-04-28T06:26:01;6.07;;;2.75;;
17662;SDS011;8950;56.892;15.090;2023-04-28T06:28:28;6.82;;;2.67;;
17662;SDS011;8950;56.892;15.090;2023-04-28T06:30:54;3.83;;;2.65;;
17662;SDS011;8950;56.892;15.090;2023-04-28T06:33:22;6.53;;;3.10;;
17662;SDS011;8950;56.892;15.090;2023-04-28T06:35:48;4.78;;;2.47;;
17662;SDS011;8950;56.892;15.090;2023-04-28T06:38:15;5.00;;;2.60;;
17662;SDS011;8950;56.892;15.090;2023-04-28T06:40:41;5.30;;;2.55;;
17662;SDS011;8950;56.892;15.090;2023-04-28T06:43:09;7.70;;;2.97;;
17662;SDS011;8950;56.892;15.090;2023-04-28T06:45:36;7.13;;;2.75;;
17662;SDS011;8950;56.892;15.090;2023-04-28T06:48:02;6.15;;;2.85;;
17662;SDS011;8950;56.892;15.090;2023-04-28T06:50:30;5.03;;;2.50;;
17662;SDS011;8950;56.892;15.090;2023-04-28T06:52:56;4.25;;;2.60;;
17662;SDS011;8950;56.892;15.090;2023-04-28T06:55:24;8.27;;;2.75;;
17662;SDS011;8950;56.892;15.090;2023-04-28T06:57:51;8.73;;;2.60;;
17662;SDS011;8950;56.892;15.090;2023-04-28T07:00:18;3.45;;;2.50;;
17662;SDS011;8950;56.892;15.090;2023-04-28T07:02:45;4.30;;;2.53;;
17662;SDS011;8950;56.892;15.090;2023-04-28T07:05:11;5.35;;;2.53;;
17662;SDS011;8950;56.892;15.090;2023-04-28T07:07:39;7.43;;;2.70;;
17662;SDS011;8950;56.892;15.090;2023-04-28T07:10:06;4.40;;;2.83;;
17662;SDS011;8950;56.892;15.090;2023-04-28T07:12:32;4.80;;;2.40;;
17662;SDS011;8950;56.892;15.090;2023-04-28T07:14:59;5.82;;;2.53;;
17662;SDS011;8950;56.892;15.090;2023-04-28T07:17:25;4.65;;;2.47;;
17662;SDS011;8950;56.892;15.090;2023-04-28T07:19:52;4.93;;;2.35;;
17662;SDS011;8950;56.892;15.090;2023-04-28T07:22:18;3.30;;;2.42;;
17662;SDS011;8950;56.892;15.090;2023-04-28T07:24:46;6.45;;;2.58;;
17662;SDS011;8950;56.892;15.090;2023-04-28T07:27:12;5.38;;;2.78;;
17662;SDS011;8950;56.892;15.090;2023-04-28T07:29:39;3.38;;;2.25;;
17662;SDS011;8950;56.892;15.090;2023-04-28T07:32:05;5.93;;;2.40;;
17662;SDS011;8950;56.892;15.090;2023-04-28T07:34:34;5.65;;;2.45;;
17662;SDS011;8950;56.892;15.090;2023-04-28T07:37:00;5.97;;;2.55;;
17662;SDS011;8950;56.892;15.090;2023-04-28T07:39:27;6.15;;;2.40;;
17662;SDS011;8950;56.892;15.090;2023-04-28T07:41:55;5.78;;;2.47;;
17662;SDS011;8950;56.892;15.090;2023-04-28T07:44:22;6.15;;;2.22;;
17662;SDS011;8950;56.892;15.090;2023-04-28T07:46:49;5.65;;;2.20;;
17662;SDS011;8950;56.892;15.090;2023-04-28T07:49:16;4.85;;;2.40;;
17662;SDS011;8950;56.892;15.090;2023-04-28T07:51:42;4.50;;;2.08;;
17662;SDS011;8950;56.892;15.090;2023-04-28T07:54:08;4.85;;;2.45;;
17662;SDS011;8950;56.892;15.090;2023-04-28T07:56:35;5.80;;;2.20;;
17662;SDS011;8950;56.892;15.090;2023-04-28T07:59:02;4.97;;;2.22;;
17662;SDS011;8950;56.892;15.090;2023-04-28T08:01:29;5.50;;;2.35;;
17662;SDS011;8950;56.892;15.090;2023-04-28T08:03:55;6.63;;;2.55;;
17662;SDS011;8950;56.892;15.090;2023-04-28T08:06:22;4.40;;;2.25;;
17662;SDS011;8950;56.892;15.090;2023-04-28T08:08:48;2.95;;;2.05;;
17662;SDS011;8950;56.892;15.090;2023-04-28T08:11:15;3.05;;;1.90;;
17662;SDS011;8950;56.892;15.090;2023-04-28T08:13:41;4.18;;;2.20;;
17662;SDS011;8950;56.892;15.090;2023-04-28T08:16:09;3.55;;;1.80;;
17662;SDS011;8950;56.892;15.090;2023-04-28T08:18:36;3.35;;;1.80;;
17662;SDS011;8950;56.892;15.090;2023-04-28T08:21:03;3.35;;;2.00;;
17662;SDS011;8950;56.892;15.090;2023-04-28T08:23:30;2.88;;;1.73;;
17662;SDS011;8950;56.892;15.090;2023-04-28T08:25:56;6.25;;;2.00;;
17662;SDS011;8950;56.892;15.090;2023-04-28T08:28:23;2.25;;;1.73;;
17662;SDS011;8950;56.892;15.090;2023-04-28T08:30:50;2.67;;;2.10;;
17662;SDS011;8950;56.892;15.090;2023-04-28T08:33:19;3.22;;;1.85;;
17662;SDS011;8950;56.892;15.090;2023-04-28T08:35:45;3.42;;;1.75;;
17662;SDS011;8950;56.892;15.090;2023-04-28T08:38:11;2.35;;;1.55;;
17662;SDS011;8950;56.892;15.090;2023-04-28T08:40:39;5.63;;;1.95;;
17662;SDS011;8950;56.892;15.090;2023-04-28T08:43:06;2.40;;;1.73;;
17662;SDS011;8950;56.892;15.090;2023-04-28T08:45:34;3.38;;;1.77;;
17662;SDS011;8950;56.892;15.090;2023-04-28T08:48:05;5.07;;;1.85;;
17662;SDS011;8950;56.892;15.090;2023-04-28T08:50:35;2.60;;;1.70;;
17662;SDS011;8950;56.892;15.090;2023-04-28T08:53:02;2.55;;;1.80;;
17662;SDS011;8950;56.892;15.090;2023-04-28T08:55:29;3.63;;;1.77;;
17662;SDS011;8950;56.892;15.090;2023-04-28T08:57:55;2.00;;;1.42;;
17662;SDS011;8950;56.892;15.090;2023-04-28T09:00:22;1.50;;;1.40;;
17662;SDS011;8950;56.892;15.090;2023-04-28T09:02:49;2.17;;;1.48;;
17662;SDS011;8950;56.892;15.090;2023-04-28T09:05:16;2.10;;;1.45;;
17662;SDS011;8950;56.892;15.090;2023-04-28T09:07:45;1.77;;;1.40;;
17662;SDS011;8950;56.892;15.090;2023-04-28T09:10:17;1.58;;;1.48;;
17662;SDS011;8950;56.892;15.090;2023-04-28T09:12:43;1.90;;;1.45;;
17662;SDS011;8950;56.892;15.090;2023-04-28T09:15:10;2.47;;;1.50;;
17662;SDS011;8950;56.892;15.090;2023-04-28T09:17:48;2.90;;;1.65;;
17662;SDS011;8950;56.892;15.090;2023-04-28T09:20:20;2.85;;;1.38;;
17662;SDS011;8950;56.892;15.090;2023-04-28T09:22:49;2.55;;;1.58;;
17662;SDS011;8950;56.892;15.090;2023-04-28T09:25:16;2.50;;;1.50;;
17662;SDS011;8950;56.892;15.090;2023-04-28T09:27:43;1.08;;;1.08;;
17662;SDS011;8950;56.892;15.090;2023-04-28T09:30:10;1.27;;;1.17;;
17662;SDS011;8950;56.892;15.090;2023-04-28T09:32:37;1.40;;;1.20;;
17662;SDS011;8950;56.892;15.090;2023-04-28T09:35:04;2.28;;;1.15;;
17662;SDS011;8950;56.892;15.090;2023-04-28T09:37:31;2.10;;;1.40;;
17662;SDS011;8950;56.892;15.090;2023-04-28T09:40:04;1.55;;;1.45;;
17662;SDS011;8950;56.892;15.090;2023-04-28T09:42:31;1.30;;;1.20;;
17662;SDS011;8950;56.892;15.090;2023-04-28T09:44:58;3.28;;;1.50;;
17662;SDS011;8950;56.892;15.090;2023-04-28T09:47:26;1.77;;;1.50;;
17662;SDS011;8950;56.892;15.090;2023-04-28T09:49:53;2.40;;;1.50;;
17662;SDS011;8950;56.892;15.090;2023-04-28T09:52:21;2.33;;;1.60;;
17662;SDS011;8950;56.892;15.090;2023-04-28T09:54:48;2.35;;;1.48;;
17662;SDS011;8950;56.892;15.090;2023-04-28T09:57:17;2.25;;;1.45;;
17662;SDS011;8950;56.892;15.090;2023-04-28T09:59:45;1.90;;;1.60;;
17662;SDS011;8950;56.892;15.090;2023-04-28T10:02:13;2.15;;;1.48;;
17662;SDS011;8950;56.892;15.090;2023-04-28T10:04:40;2.20;;;1.50;;
17662;SDS011;8950;56.892;15.090;2023-04-28T10:07:06;1.50;;;1.20;;
17662;SDS011;8950;56.892;15.090;2023-04-28T10:09:34;2.17;;;1.45;;
17662;SDS011;8950;56.892;15.090;2023-04-28T10:12:01;1.77;;;1.42;;
17662;SDS011;8950;56.892;15.090;2023-04-28T10:14:30;2.33;;;1.50;;
17662;SDS011;8950;56.892;15.090;2023-04-28T10:16:56;2.40;;;1.67;;
17662;SDS011;8950;56.892;15.090;2023-04-28T10:19:24;1.75;;;1.60;;
17662;SDS011;8950;56.892;15.090;2023-04-28T10:21:52;2.30;;;1.73;;
17662;SDS011;8950;56.892;15.090;2023-04-28T10:24:23;1.67;;;1.40;;
17662;SDS011;8950;56.892;15.090;2023-04-28T10:27:06;1.92;;;1.50;;
17662;SDS011;8950;56.892;15.090;2023-04-28T10:29:34;3.05;;;1.50;;
17662;SDS011;8950;56.892;15.090;2023-04-28T10:32:14;1.83;;;1.33;;
17662;SDS011;8950;56.892;15.090;2023-04-28T10:37:14;2.42;;;1.50;;
17662;SDS011;8950;56.892;15.090;2023-04-28T10:45:10;1.90;;;1.70;;
17662;SDS011;8950;56.892;15.090;2023-04-28T10:50:18;3.55;;;1.58;;
17662;SDS011;8950;56.892;15.090;2023-04-28T10:52:47;1.75;;;1.55;;
17662;SDS011;8950;56.892;15.090;2023-04-28T10:55:26;3.05;;;1.60;;
17662;SDS011;8950;56.892;15.090;2023-04-28T11:00:38;1.50;;;1.40;;
17662;SDS011;8950;56.892;15.090;2023-04-28T11:03:05;3.00;;;1.58;;
17662;SDS011;8950;56.892;15.090;2023-04-28T11:05:31;1.60;;;1.17;;
17662;SDS011;8950;56.892;15.090;2023-04-28T11:13:24;1.73;;;1.45;;
17662;SDS011;8950;56.892;15.090;2023-04-28T11:16:02;3.63;;;1.35;;
17662;SDS011;8950;56.892;15.090;2023-04-28T11:18:29;2.08;;;1.40;;
17662;SDS011;8950;56.892;15.090;2023-04-28T11:20:57;2.55;;;1.50;;
17662;SDS011;8950;56.892;15.090;2023-04-28T11:23:23;2.25;;;1.50;;
17662;SDS011;8950;56.892;15.090;2023-04-28T11:25:53;2.05;;;1.40;;
17662;SDS011;8950;56.892;15.090;2023-04-28T11:28:19;2.22;;;1.48;;
17662;SDS011;8950;56.892;15.090;2023-04-28T11:30:46;2.25;;;1.40;;
17662;SDS011;8950;56.892;15.090;2023-04-28T11:33:14;1.75;;;1.30;;
17662;SDS011;8950;56.892;15.090;2023-04-28T11:35:41;3.42;;;1.38;;
17662;SDS011;8950;56.892;15.090;2023-04-28T11:38:07;2.75;;;1.40;;
17662;SDS011;8950;56.892;15.090;2023-04-28T11:40:34;2.70;;;1.45;;
17662;SDS011;8950;56.892;15.090;2023-04-28T11:43:01;1.45;;;1.35;;
17662;SDS011;8950;56.892;15.090;2023-04-28T11:45:28;1.30;;;1.20;;
17662;SDS011;8950;56.892;15.090;2023-04-28T11:47:54;2.55;;;1.25;;
17662;SDS011;8950;56.892;15.090;2023-04-28T11:50:35;1.85;;;1.40;;
17662;SDS011;8950;56.892;15.090;2023-04-28T11:53:02;1.52;;;1.35;;
17662;SDS011;8950;56.892;15.090;2023-04-28T11:55:28;1.67;;;1.50;;
17662;SDS011;8950;56.892;15.090;2023-04-28T12:00:36;1.77;;;1.45;;
17662;SDS011;8950;56.892;15.090;2023-04-28T12:03:06;1.67;;;1.40;;
17662;SDS011;8950;56.892;15.090;2023-04-28T12:05:32;3.67;;;1.25;;
17662;SDS011;8950;56.892;15.090;2023-04-28T12:08:01;2.13;;;1.50;;
17662;SDS011;8950;56.892;15.090;2023-04-28T12:10:28;2.63;;;1.35;;
17662;SDS011;8950;56.892;15.090;2023-04-28T12:12:55;2.85;;;1.73;;
17662;SDS011;8950;56.892;15.090;2023-04-28T12:15:21;2.67;;;1.42;;
17662;SDS011;8950;56.892;15.090;2023-04-28T12:17:49;1.48;;;1.38;;
17662;SDS011;8950;56.892;15.090;2023-04-28T12:22:57;2.20;;;1.60;;
17662;SDS011;8950;56.892;15.090;2023-04-28T12:25:25;1.73;;;1.63;;
17662;SDS011;8950;56.892;15.090;2023-04-28T12:27:58;2.15;;;1.35;;
17662;SDS011;8950;56.892;15.090;2023-04-28T12:30:26;3.13;;;1.50;;
17662;SDS011;8950;56.892;15.090;2023-04-28T12:32:53;2.38;;;1.30;;
17662;SDS011;8950;56.892;15.090;2023-04-28T12:35:21;1.65;;;1.38;;
17662;SDS011;8950;56.892;15.090;2023-04-28T12:37:47;2.40;;;1.50;;
17662;SDS011;8950;56.892;15.090;2023-04-28T12:40:14;1.88;;;1.40;;
17662;SDS011;8950;56.892;15.090;2023-04-28T12:42:42;1.98;;;1.60;;
17662;SDS011;8950;56.892;15.090;2023-04-28T12:45:08;1.60;;;1.42;;
17662;SDS011;8950;56.892;15.090;2023-04-28T12:47:35;1.95;;;1.50;;
17662;SDS011;8950;56.892;15.090;2023-04-28T12:50:01;2.40;;;1.58;;
17662;SDS011;8950;56.892;15.090;2023-04-28T12:52:28;1.77;;;1.52;;
17662;SDS011;8950;56.892;15.090;2023-04-28T12:54:57;1.73;;;1.40;;
17662;SDS011;8950;56.892;15.090;2023-04-28T12:57:24;1.63;;;1.38;;
17662;SDS011;8950;56.892;15.090;2023-04-28T12:59:52;2.63;;;1.50;;
17662;SDS011;8950;56.892;15.090;2023-04-28T13:02:18;2.00;;;1.45;;
17662;SDS011;8950;56.892;15.090;2023-04-28T13:04:44;2.50;;;1.65;;
17662;SDS011;8950;56.892;15.090;2023-04-28T13:07:11;2.47;;;1.60;;
17662;SDS011;8950;56.892;15.090;2023-04-28T13:09:38;3.78;;;1.60;;
17662;SDS011;8950;56.892;15.090;2023-04-28T13:12:06;2.35;;;1.52;;
17662;SDS011;8950;56.892;15.090;2023-04-28T13:14:32;2.33;;;1.60;;
17662;SDS011;8950;56.892;15.090;2023-04-28T13:17:00;1.60;;;1.50;;
17662;SDS011;8950;56.892;15.090;2023-04-28T13:19:27;1.45;;;1.30;;
17662;SDS011;8950;56.892;15.090;2023-04-28T13:21:54;2.67;;;1.40;;
17662;SDS011;8950;56.892;15.090;2023-04-28T13:24:21;2.00;;;1.30;;
17662;SDS011;8950;56.892;15.090;2023-04-28T13:26:48;2.97;;;1.50;;
17662;SDS011;8950;56.892;15.090;2023-04-28T13:29:14;1.42;;;1.30;;
17662;SDS011;8950;56.892;15.090;2023-04-28T13:31:42;2.25;;;1.40;;
17662;SDS011;8950;56.892;15.090;2023-04-28T13:34:10;2.05;;;1.52;;
17662;SDS011;8950;56.892;15.090;2023-04-28T13:36:39;1.80;;;1.45;;
17662;SDS011;8950;56.892;15.090;2023-04-28T13:39:06;2.72;;;1.75;;
17662;SDS011;8950;56.892;15.090;2023-04-28T13:41:35;2.13;;;1.40;;
17662;SDS011;8950;56.892;15.090;2023-04-28T13:44:01;3.00;;;1.77;;
17662;SDS011;8950;56.892;15.090;2023-04-28T13:46:28;1.23;;;1.17;;
17662;SDS011;8950;56.892;15.090;2023-04-28T13:48:55;2.78;;;1.40;;
17662;SDS011;8950;56.892;15.090;2023-04-28T13:51:23;2.55;;;1.50;;
17662;SDS011;8950;56.892;15.090;2023-04-28T13:53:50;2.47;;;1.40;;
17662;SDS011;8950;56.892;15.090;2023-04-28T13:56:16;1.95;;;1.50;;
17662;SDS011;8950;56.892;15.090;2023-04-28T13:58:42;1.80;;;1.50;;
17662;SDS011;8950;56.892;15.090;2023-04-28T14:01:09;1.98;;;1.48;;
17662;SDS011;8950;56.892;15.090;2023-04-28T14:03:35;3.40;;;1.30;;
17662;SDS011;8950;56.892;15.090;2023-04-28T14:06:02;2.38;;;1.42;;
17662;SDS011;8950;56.892;15.090;2023-04-28T14:08:30;3.13;;;1.52;;
17662;SDS011;8950;56.892;15.090;2023-04-28T14:10:56;2.45;;;1.92;;
17662;SDS011;8950;56.892;15.090;2023-04-28T14:13:23;2.45;;;1.42;;
17662;SDS011;8950;56.892;15.090;2023-04-28T14:15:50;1.92;;;1.33;;
17662;SDS011;8950;56.892;15.090;2023-04-28T14:18:16;1.70;;;1.52;;
17662;SDS011;8950;56.892;15.090;2023-04-28T14:20:43;2.47;;;1.60;;
17662;SDS011;8950;56.892;15.090;2023-04-28T14:23:09;2.42;;;1.50;;
17662;SDS011;8950;56.892;15.090;2023-04-28T14:25:37;2.25;;;1.35;;
17662;SDS011;8950;56.892;15.090;2023-04-28T14:28:03;1.77;;;1.48;;
17662;SDS011;8950;56.892;15.090;2023-04-28T14:30:30;1.92;;;1.40;;
17662;SDS011;8950;56.892;15.090;2023-04-28T14:32:56;1.80;;;1.48;;
17662;SDS011;8950;56.892;15.090;2023-04-28T14:35:23;2.13;;;1.40;;
17662;SDS011;8950;56.892;15.090;2023-04-28T14:37:50;2.45;;;1.38;;
17662;SDS011;8950;56.892;15.090;2023-04-28T14:40:17;1.75;;;1.52;;
17662;SDS011;8950;56.892;15.090;2023-04-28T14:42:45;2.30;;;1.73;;
17662;SDS011;8950;56.892;15.090;2023-04-28T14:45:12;1.63;;;1.35;;
17662;SDS011;8950;56.892;15.090;2023-04-28T14:47:38;2.00;;;1.38;;
17662;SDS011;8950;56.892;15.090;2023-04-28T14:50:05;1.98;;;1.77;;
17662;SDS011;8950;56.892;15.090;2023-04-28T14:52:32;2.85;;;1.60;;
17662;SDS011;8950;56.892;15.090;2023-04-28T14:54:59;1.65;;;1.48;;
17662;SDS011;8950;56.892;15.090;2023-04-28T14:57:27;1.95;;;1.70;;
17662;SDS011;8950;56.892;15.090;2023-04-28T14:59:55;1.90;;;1.60;;
17662;SDS011;8950;56.892;15.090;2023-04-28T15:02:22;2.88;;;1.48;;
17662;SDS011;8950;56.892;15.090;2023-04-28T15:04:53;1.42;;;1.30;;
17662;SDS011;8950;56.892;15.090;2023-04-28T15:07:19;2.30;;;1.55;;
17662;SDS011;8950;56.892;15.090;2023-04-28T15:09:46;1.55;;;1.45;;
17662;SDS011;8950;56.892;15.090;2023-04-28T15:12:12;1.63;;;1.30;;